Time;durP1;ratioP1;P1;durP2;ratioP2;P2;SDS_P1;SDS_P2;PMS_P1;PMS_P2;Temp;Humidity;BMP_temperature;BMP_pressure;BME280_temperature;BME280_humidity;BME280_pressure;Samples;Min_cycle;Max_cycle;Signal;HPM_P1;HPM_P2
2023/02/01 05:57:38;;;;;;;24.00;14.50;;;;;;;1.26;100.00;99421.91;109164;1274;22572;-37
2023/02/01 06:00:06;;;;;;;25.40;14.20;;;;;;;1.25;100.00;99423.63;112157;1259;23391;-44
2023/02/01 09:54:25;;;;;;;14.30;6.30;;;;;;;3.08;98.78;99363.81;106599;1298;556535;-40
2023/02/01 09:57:00;;;;;;;16.90;6.30;;;;;;;3.31;96.78;99361.58;108025;1284;148358;-46
2023/02/01 09:59:54;;;;;;;12.90;5.70;;;;;;;3.41;94.36;99367.09;106637;1287;25555;-38
2023/02/01 10:02:26;;;;;;;19.20;6.70;;;;;;;3.50;93.44;99365.29;109299;1288;22916;-37
2023/02/01 10:04:56;;;;;;;17.90;5.80;;;;;;;3.54;92.44;99364.14;109250;1288;22613;-37
2023/02/01 10:07:31;;;;;;;17.50;5.80;;;;;;;3.59;90.95;99365.92;109261;1282;22525;-41
2023/02/01 10:10:09;;;;;;;20.10;7.80;;;;;;;3.69;91.40;99361.23;108722;1283;23209;-38
2023/02/01 10:13:06;;;;;;;15.60;6.90;;;;;;;3.85;91.54;99360.23;109065;1281;22339;-39
2023/02/01 10:15:56;;;;;;;19.40;6.30;;;;;;;4.06;91.65;99357.88;108909;1275;22530;-46
2023/02/01 10:18:36;;;;;;;14.60;6.50;;;;;;;4.14;89.79;99359.01;109525;1273;22462;-39
2023/02/01 10:21:47;;;;;;;12.70;6.10;;;;;;;4.08;88.78;99358.92;109491;1278;23052;-38
2023/02/01 10:24:49;;;;;;;23.30;8.20;;;;;;;4.00;88.98;99356.10;109288;1283;22471;-39
2023/02/01 10:28:21;;;;;;;17.80;6.40;;;;;;;4.21;88.64;99353.38;109428;1285;22350;-38
2023/02/01 10:31:41;;;;;;;14.40;6.70;;;;;;;4.83;87.40;99343.94;109309;1278;23083;-39
2023/02/01 10:39:09;;;;;;;10.10;4.80;;;;;;;6.11;78.28;99337.74;109023;1278;22450;-45
2023/02/01 10:42:51;;;;;;;13.70;5.10;;;;;;;5.95;74.51;99331.45;108350;1279;22526;-37
2023/02/01 10:46:07;;;;;;;12.20;5.70;;;;;;;5.64;74.95;99336.67;109037;1285;23490;-38
2023/02/01 10:52:18;;;;;;;12.00;5.20;;;;;;;5.15;74.97;99335.36;109262;1279;22529;-39
2023/02/01 10:54:53;;;;;;;10.80;4.20;;;;;;;4.94;75.54;99329.67;108929;1275;22742;-47
2023/02/01 10:57:25;;;;;;;11.40;4.10;;;;;;;4.86;76.06;99331.36;109422;1277;22518;-38
2023/02/01 11:00:05;;;;;;;10.00;4.80;;;;;;;4.78;74.86;99328.19;109313;1279;22554;-44
2023/02/01 11:02:42;;;;;;;12.00;4.20;;;;;;;4.67;74.61;99328.43;109048;1266;22337;-43
2023/02/01 11:05:22;;;;;;;12.40;4.30;;;;;;;4.54;74.43;99327.12;109368;1277;22487;-45
2023/02/01 11:07:58;;;;;;;14.70;4.20;;;;;;;4.43;75.21;99330.81;109654;1280;22390;-45
2023/02/01 11:10:37;;;;;;;13.20;6.00;;;;;;;4.36;75.42;99322.46;109827;1278;22390;-46
2023/02/01 11:13:15;;;;;;;13.30;6.30;;;;;;;4.30;76.28;99325.68;109570;1272;22389;-45
2023/02/01 11:15:47;;;;;;;19.80;7.10;;;;;;;4.24;75.28;99323.89;109164;1279;22538;-46
2023/02/01 11:18:20;;;;;;;12.10;5.50;;;;;;;4.21;75.08;99320.23;109519;1273;22988;-47
2023/02/01 11:20:51;;;;;;;24.40;13.80;;;;;;;4.31;75.44;99316.55;109795;1272;22486;-46
2023/02/01 11:23:22;;;;;;;25.10;13.30;;;;;;;4.75;76.30;99309.34;109326;1271;22338;-46
2023/02/01 11:25:55;;;;;;;20.00;9.00;;;;;;;5.54;75.58;99302.36;109074;1276;23324;-38
2023/02/01 11:28:29;;;;;;;18.30;7.80;;;;;;;6.42;71.28;99298.82;109434;1275;22300;-38
2023/02/01 11:30:59;;;;;;;12.80;5.80;;;;;;;7.20;67.73;99296.17;109869;1275;22334;-38
2023/02/01 11:33:34;;;;;;;20.20;10.20;;;;;;;7.69;62.83;99292.55;109853;1276;22481;-39
2023/02/01 11:36:15;;;;;;;11.20;4.60;;;;;;;7.97;60.62;99292.07;109886;1275;22368;-37
2023/02/01 11:38:53;;;;;;;;;;;;;;;8.14;58.23;99289.20;108935;1276;23350;-37
2023/02/01 11:41:26;;;;;;;10.20;5.70;;;;;;;8.19;58.53;99287.76;109903;1277;22991;-45
2023/02/01 11:43:56;;;;;;;9.40;3.50;;;;;;;8.35;57.25;99284.90;109985;1278;22601;-44
2023/02/01 11:46:29;;;;;;;8.60;2.90;;;;;;;8.58;55.37;99281.96;109965;1278;22333;-38
2023/02/01 11:49:14;;;;;;;8.10;3.70;;;;;;;8.72;54.85;99282.19;110018;1277;22406;-37
2023/02/01 11:52:10;;;;;;;16.30;4.90;;;;;;;8.71;53.98;99279.95;109911;1275;23667;-46
2023/02/01 11:54:58;;;;;;;9.90;4.90;;;;;;;8.49;53.45;99275.26;109939;1278;22992;-45
2023/02/01 11:57:54;;;;;;;7.30;4.20;;;;;;;8.35;52.67;99275.52;109927;1279;22281;-47
2023/02/01 12:00:35;;;;;;;6.80;3.00;;;;;;;8.54;53.11;99279.04;109887;1279;22463;-39
2023/02/01 12:03:34;;;;;;;5.20;2.50;;;;;;;8.70;51.64;99278.73;109906;1274;22771;-38
2023/02/01 12:06:12;;;;;;;11.00;3.80;;;;;;;8.62;50.55;99282.27;109923;1279;22200;-39
2023/02/01 12:09:36;;;;;;;7.00;3.50;;;;;;;8.24;51.56;99279.05;110035;1278;22471;-48
2023/02/01 12:12:24;;;;;;;8.30;3.80;;;;;;;7.90;52.53;99281.86;108037;1284;24714;-45
2023/02/01 12:14:52;;;;;;;8.50;3.10;;;;;;;7.36;53.10;99277.73;107371;1284;22557;-38
2023/02/01 12:17:48;;;;;;;15.60;4.80;;;;;;;6.74;54.69;99280.48;107947;1276;22660;-44
2023/02/01 12:20:35;;;;;;;10.30;3.80;;;;;;;6.11;56.27;99290.13;108832;1281;22585;-39
2023/02/01 12:23:16;;;;;;;11.80;4.30;;;;;;;5.62;57.45;99286.48;107517;1284;22544;-46
2023/02/01 12:25:53;;;;;;;13.90;5.20;;;;;;;5.27;58.86;99287.02;107306;1284;22257;-39
2023/02/01 12:28:27;;;;;;;9.50;4.30;;;;;;;5.01;60.09;99288.42;106587;1284;22567;-39
2023/02/01 12:31:09;;;;;;;13.10;4.40;;;;;;;4.83;61.35;99295.55;107187;1284;22577;-45
2023/02/01 12:33:57;;;;;;;13.30;4.50;;;;;;;4.78;62.43;99294.14;107165;1284;24256;-37
2023/02/01 12:36:40;;;;;;;13.10;4.60;;;;;;;4.77;63.27;99285.50;107837;1284;22248;-39
2023/02/01 12:39:30;;;;;;;12.20;3.70;;;;;;;4.73;63.08;99281.16;107128;1284;22588;-39
2023/02/01 12:42:06;;;;;;;14.80;5.50;;;;;;;4.61;60.28;99284.52;106864;1284;22527;-38
2023/02/01 12:44:45;;;;;;;8.10;2.70;;;;;;;4.57;57.77;99283.09;107287;1282;22641;-39
2023/02/01 12:47:16;;;;;;;10.50;3.60;;;;;;;4.56;57.17;99281.53;109074;1279;23010;-38
2023/02/01 12:49:49;;;;;;;7.90;2.80;;;;;;;4.56;57.19;99282.05;109637;1276;22318;-39
2023/02/01 12:52:23;;;;;;;9.80;3.50;;;;;;;4.49;57.57;99281.66;109416;1272;22459;-46
2023/02/01 12:54:58;;;;;;;11.70;3.50;;;;;;;4.37;59.25;99280.34;108975;1273;22630;-47
2023/02/01 12:57:34;;;;;;;8.40;3.60;;;;;;;4.25;60.43;99276.26;107119;1273;24360;-45
2023/02/01 13:00:06;;;;;;;14.50;6.00;;;;;;;4.12;61.69;99277.86;109634;1279;25170;-45
2023/02/01 13:02:44;;;;;;;12.30;5.20;;;;;;;4.00;62.23;99275.15;109372;1279;24574;-45
2023/02/01 13:05:17;;;;;;;10.10;4.30;;;;;;;3.91;63.59;99274.20;109740;1279;22580;-46
2023/02/01 13:08:07;;;;;;;8.80;3.90;;;;;;;3.82;63.86;99274.45;107362;1279;23073;-45
2023/02/01 13:10:40;;;;;;;10.70;4.90;;;;;;;3.68;63.87;99271.02;109444;1273;22530;-45
2023/02/01 13:13:40;;;;;;;9.50;4.60;;;;;;;3.57;64.25;99274.69;107815;1279;25347;-45
2023/02/01 13:16:11;;;;;;;13.00;5.20;;;;;;;3.47;64.84;99275.60;108485;1274;25295;-45
2023/02/01 13:18:43;;;;;;;14.80;5.10;;;;;;;3.38;65.54;99273.77;107409;1277;22271;-44
2023/02/01 13:21:16;;;;;;;21.30;7.10;;;;;;;3.30;65.57;99275.39;107752;1279;25483;-45
2023/02/01 13:23:46;;;;;;;12.80;4.50;;;;;;;3.23;65.59;99277.01;107419;1279;23899;-45
2023/02/01 13:26:14;;;;;;;13.10;4.50;;;;;;;3.14;66.06;99280.18;107306;1276;22531;-45
2023/02/01 13:29:16;;;;;;;14.40;4.50;;;;;;;3.08;65.96;99276.98;109491;1277;22563;-38
2023/02/01 13:32:05;;;;;;;10.80;4.10;;;;;;;3.00;66.85;99272.22;106841;1284;22518;-45
2023/02/01 13:35:02;;;;;;;9.60;4.10;;;;;;;2.94;67.45;99274.20;108757;1278;26500;-45
2023/02/01 13:38:07;;;;;;;9.80;4.00;;;;;;;2.89;68.26;99271.20;109697;1283;22657;-45
2023/02/01 13:40:43;;;;;;;8.20;4.50;;;;;;;2.85;69.26;99275.46;109613;1280;22306;-38
